sensor_id;sensor_type;location;lat;lon;timestamp;P1;durP1;ratioP1;P2;durP2;ratioP2
36963;SDS011;22878;48.616;35.326;2023-12-20T00:01:34;61.70;;;25.30;;
36963;SDS011;22878;48.616;35.326;2023-12-20T00:04:00;57.70;;;26.10;;
36963;SDS011;22878;48.616;35.326;2023-12-20T00:06:27;74.20;;;27.10;;
36963;SDS011;22878;48.616;35.326;2023-12-20T00:08:52;63.00;;;26.10;;
36963;SDS011;22878;48.616;35.326;2023-12-20T00:11:18;69.30;;;28.30;;
36963;SDS011;22878;48.616;35.326;2023-12-20T00:13:44;67.30;;;28.20;;
36963;SDS011;22878;48.616;35.326;2023-12-20T00:16:09;66.40;;;27.50;;
36963;SDS011;22878;48.616;35.326;2023-12-20T00:18:35;63.60;;;25.90;;
36963;SDS011;22878;48.616;35.326;2023-12-20T00:21:00;61.30;;;25.10;;
36963;SDS011;22878;48.616;35.326;2023-12-20T00:23:26;65.90;;;26.00;;
36963;SDS011;22878;48.616;35.326;2023-12-20T00:25:51;66.60;;;26.60;;
36963;SDS011;22878;48.616;35.326;2023-12-20T00:28:16;72.40;;;28.60;;
36963;SDS011;22878;48.616;35.326;2023-12-20T00:30:42;62.60;;;26.60;;
36963;SDS011;22878;48.616;35.326;2023-12-20T00:33:08;67.70;;;28.70;;
36963;SDS011;22878;48.616;35.326;2023-12-20T00:35:36;71.30;;;27.30;;
36963;SDS011;22878;48.616;35.326;2023-12-20T00:38:01;58.70;;;25.90;;
36963;SDS011;22878;48.616;35.326;2023-12-20T00:40:27;60.00;;;25.50;;
36963;SDS011;22878;48.616;35.326;2023-12-20T00:42:52;67.30;;;26.90;;
36963;SDS011;22878;48.616;35.326;2023-12-20T00:45:18;63.50;;;27.20;;
36963;SDS011;22878;48.616;35.326;2023-12-20T00:47:43;60.90;;;26.30;;
36963;SDS011;22878;48.616;35.326;2023-12-20T00:50:09;59.80;;;25.80;;
36963;SDS011;22878;48.616;35.326;2023-12-20T00:52:34;57.20;;;26.30;;
36963;SDS011;22878;48.616;35.326;2023-12-20T00:55:00;55.20;;;25.40;;
36963;SDS011;22878;48.616;35.326;2023-12-20T00:57:25;60.90;;;26.30;;
36963;SDS011;22878;48.616;35.326;2023-12-20T00:59:51;59.60;;;25.60;;
36963;SDS011;22878;48.616;35.326;2023-12-20T01:02:16;57.00;;;25.10;;
36963;SDS011;22878;48.616;35.326;2023-12-20T01:04:42;51.90;;;24.00;;
36963;SDS011;22878;48.616;35.326;2023-12-20T01:07:07;58.20;;;25.70;;
36963;SDS011;22878;48.616;35.326;2023-12-20T01:09:33;60.60;;;25.60;;
36963;SDS011;22878;48.616;35.326;2023-12-20T01:11:58;60.50;;;25.70;;
36963;SDS011;22878;48.616;35.326;2023-12-20T01:14:24;59.20;;;25.50;;
36963;SDS011;22878;48.616;35.326;2023-12-20T01:16:49;64.50;;;27.70;;
36963;SDS011;22878;48.616;35.326;2023-12-20T01:19:15;58.90;;;25.90;;
36963;SDS011;22878;48.616;35.326;2023-12-20T01:21:41;61.40;;;26.90;;
36963;SDS011;22878;48.616;35.326;2023-12-20T01:24:06;59.90;;;25.10;;
36963;SDS011;22878;48.616;35.326;2023-12-20T01:26:32;63.60;;;27.30;;
36963;SDS011;22878;48.616;35.326;2023-12-20T01:28:57;66.40;;;27.10;;
36963;SDS011;22878;48.616;35.326;2023-12-20T01:31:23;58.70;;;25.00;;
36963;SDS011;22878;48.616;35.326;2023-12-20T01:33:48;67.00;;;27.80;;
36963;SDS011;22878;48.616;35.326;2023-12-20T01:36:14;66.30;;;26.90;;
36963;SDS011;22878;48.616;35.326;2023-12-20T01:38:39;65.90;;;26.60;;
36963;SDS011;22878;48.616;35.326;2023-12-20T01:41:05;57.50;;;23.80;;
36963;SDS011;22878;48.616;35.326;2023-12-20T01:43:30;53.70;;;23.70;;
36963;SDS011;22878;48.616;35.326;2023-12-20T01:45:56;54.50;;;25.00;;
36963;SDS011;22878;48.616;35.326;2023-12-20T01:48:23;59.80;;;25.20;;
36963;SDS011;22878;48.616;35.326;2023-12-20T01:50:49;57.70;;;25.60;;
36963;SDS011;22878;48.616;35.326;2023-12-20T01:53:16;58.50;;;26.00;;
36963;SDS011;22878;48.616;35.326;2023-12-20T01:55:44;62.70;;;27.20;;
36963;SDS011;22878;48.616;35.326;2023-12-20T01:58:10;62.80;;;26.80;;
36963;SDS011;22878;48.616;35.326;2023-12-20T02:00:37;64.30;;;28.10;;
36963;SDS011;22878;48.616;35.326;2023-12-20T02:03:03;59.00;;;25.50;;
36963;SDS011;22878;48.616;35.326;2023-12-20T02:05:29;61.50;;;27.50;;
36963;SDS011;22878;48.616;35.326;2023-12-20T02:07:56;60.60;;;26.80;;
36963;SDS011;22878;48.616;35.326;2023-12-20T02:10:22;60.10;;;25.90;;
36963;SDS011;22878;48.616;35.326;2023-12-20T02:12:48;65.90;;;28.40;;
36963;SDS011;22878;48.616;35.326;2023-12-20T02:15:13;68.40;;;28.60;;
36963;SDS011;22878;48.616;35.326;2023-12-20T02:17:39;70.00;;;28.60;;
36963;SDS011;22878;48.616;35.326;2023-12-20T02:20:05;69.90;;;28.40;;
36963;SDS011;22878;48.616;35.326;2023-12-20T02:22:31;62.30;;;27.00;;
36963;SDS011;22878;48.616;35.326;2023-12-20T02:24:57;71.00;;;29.40;;
36963;SDS011;22878;48.616;35.326;2023-12-20T02:27:22;65.70;;;27.10;;
36963;SDS011;22878;48.616;35.326;2023-12-20T02:29:48;63.40;;;26.60;;
36963;SDS011;22878;48.616;35.326;2023-12-20T02:32:15;71.40;;;28.90;;
36963;SDS011;22878;48.616;35.326;2023-12-20T02:34:42;68.00;;;27.70;;
36963;SDS011;22878;48.616;35.326;2023-12-20T02:37:07;66.10;;;28.00;;
36963;SDS011;22878;48.616;35.326;2023-12-20T02:39:33;71.50;;;28.70;;
36963;SDS011;22878;48.616;35.326;2023-12-20T02:41:58;66.60;;;27.50;;
36963;SDS011;22878;48.616;35.326;2023-12-20T02:44:27;68.50;;;29.00;;
36963;SDS011;22878;48.616;35.326;2023-12-20T02:46:52;64.20;;;26.30;;
36963;SDS011;22878;48.616;35.326;2023-12-20T02:49:18;75.10;;;29.70;;
36963;SDS011;22878;48.616;35.326;2023-12-20T02:51:43;73.80;;;28.50;;
36963;SDS011;22878;48.616;35.326;2023-12-20T02:54:09;73.70;;;28.10;;
36963;SDS011;22878;48.616;35.326;2023-12-20T02:56:34;66.20;;;27.90;;
36963;SDS011;22878;48.616;35.326;2023-12-20T02:59:00;61.90;;;26.70;;
36963;SDS011;22878;48.616;35.326;2023-12-20T03:01:26;67.30;;;28.90;;
36963;SDS011;22878;48.616;35.326;2023-12-20T03:03:53;72.00;;;29.30;;
36963;SDS011;22878;48.616;35.326;2023-12-20T03:06:18;65.80;;;29.50;;
36963;SDS011;22878;48.616;35.326;2023-12-20T03:08:44;71.50;;;28.90;;
36963;SDS011;22878;48.616;35.326;2023-12-20T03:11:10;68.10;;;28.20;;
36963;SDS011;22878;48.616;35.326;2023-12-20T03:13:36;76.40;;;29.50;;
36963;SDS011;22878;48.616;35.326;2023-12-20T03:16:07;62.00;;;29.00;;
36963;SDS011;22878;48.616;35.326;2023-12-20T03:18:37;64.80;;;30.30;;
36963;SDS011;22878;48.616;35.326;2023-12-20T03:21:02;74.30;;;28.80;;
36963;SDS011;22878;48.616;35.326;2023-12-20T03:23:29;65.90;;;28.60;;
36963;SDS011;22878;48.616;35.326;2023-12-20T03:25:55;74.90;;;31.40;;
36963;SDS011;22878;48.616;35.326;2023-12-20T03:28:21;75.60;;;33.10;;
36963;SDS011;22878;48.616;35.326;2023-12-20T03:30:48;75.90;;;31.50;;
36963;SDS011;22878;48.616;35.326;2023-12-20T03:33:13;80.10;;;33.60;;
36963;SDS011;22878;48.616;35.326;2023-12-20T03:35:39;82.70;;;33.60;;
36963;SDS011;22878;48.616;35.326;2023-12-20T03:38:04;84.00;;;34.30;;
36963;SDS011;22878;48.616;35.326;2023-12-20T03:40:30;75.50;;;32.00;;
36963;SDS011;22878;48.616;35.326;2023-12-20T03:42:55;75.00;;;31.60;;
36963;SDS011;22878;48.616;35.326;2023-12-20T03:45:20;85.80;;;34.20;;
36963;SDS011;22878;48.616;35.326;2023-12-20T03:47:46;83.90;;;32.40;;
36963;SDS011;22878;48.616;35.326;2023-12-20T03:50:12;74.90;;;32.80;;
36963;SDS011;22878;48.616;35.326;2023-12-20T03:52:38;75.40;;;30.90;;
36963;SDS011;22878;48.616;35.326;2023-12-20T03:55:03;73.50;;;30.90;;
36963;SDS011;22878;48.616;35.326;2023-12-20T03:57:29;80.60;;;33.40;;
36963;SDS011;22878;48.616;35.326;2023-12-20T03:59:55;82.80;;;34.20;;
36963;SDS011;22878;48.616;35.326;2023-12-20T04:02:20;82.80;;;34.00;;
36963;SDS011;22878;48.616;35.326;2023-12-20T04:04:46;86.70;;;35.30;;
36963;SDS011;22878;48.616;35.326;2023-12-20T04:07:11;80.20;;;34.40;;
36963;SDS011;22878;48.616;35.326;2023-12-20T04:09:37;91.30;;;34.70;;
36963;SDS011;22878;48.616;35.326;2023-12-20T04:12:02;83.20;;;36.30;;
36963;SDS011;22878;48.616;35.326;2023-12-20T04:14:28;89.30;;;37.10;;
36963;SDS011;22878;48.616;35.326;2023-12-20T04:16:54;88.50;;;36.20;;
36963;SDS011;22878;48.616;35.326;2023-12-20T04:19:19;91.10;;;37.70;;
36963;SDS011;22878;48.616;35.326;2023-12-20T04:21:45;92.90;;;37.40;;
36963;SDS011;22878;48.616;35.326;2023-12-20T04:24:10;88.30;;;36.30;;
36963;SDS011;22878;48.616;35.326;2023-12-20T04:26:36;88.00;;;34.40;;
36963;SDS011;22878;48.616;35.326;2023-12-20T04:29:01;88.60;;;32.60;;
36963;SDS011;22878;48.616;35.326;2023-12-20T04:31:27;84.30;;;34.10;;
36963;SDS011;22878;48.616;35.326;2023-12-20T04:33:52;82.70;;;33.90;;
36963;SDS011;22878;48.616;35.326;2023-12-20T04:36:18;88.70;;;34.00;;
36963;SDS011;22878;48.616;35.326;2023-12-20T04:38:43;73.50;;;30.90;;
36963;SDS011;22878;48.616;35.326;2023-12-20T04:41:09;82.50;;;31.90;;
36963;SDS011;22878;48.616;35.326;2023-12-20T04:43:34;77.00;;;31.70;;
36963;SDS011;22878;48.616;35.326;2023-12-20T04:46:00;80.10;;;32.70;;
36963;SDS011;22878;48.616;35.326;2023-12-20T04:48:25;79.10;;;32.30;;
36963;SDS011;22878;48.616;35.326;2023-12-20T04:50:51;79.90;;;32.70;;
36963;SDS011;22878;48.616;35.326;2023-12-20T04:53:16;77.90;;;32.50;;
36963;SDS011;22878;48.616;35.326;2023-12-20T04:55:42;74.30;;;32.90;;
36963;SDS011;22878;48.616;35.326;2023-12-20T04:58:07;76.80;;;31.20;;
36963;SDS011;22878;48.616;35.326;2023-12-20T05:00:33;75.10;;;30.20;;
36963;SDS011;22878;48.616;35.326;2023-12-20T05:02:58;66.50;;;28.90;;
36963;SDS011;22878;48.616;35.326;2023-12-20T05:05:23;66.30;;;28.30;;
36963;SDS011;22878;48.616;35.326;2023-12-20T05:07:49;64.10;;;27.70;;
36963;SDS011;22878;48.616;35.326;2023-12-20T05:10:14;63.60;;;28.10;;
36963;SDS011;22878;48.616;35.326;2023-12-20T05:12:40;64.60;;;28.20;;
36963;SDS011;22878;48.616;35.326;2023-12-20T05:15:06;67.80;;;29.20;;
36963;SDS011;22878;48.616;35.326;2023-12-20T05:17:31;61.70;;;27.70;;
36963;SDS011;22878;48.616;35.326;2023-12-20T05:19:57;68.50;;;27.90;;
36963;SDS011;22878;48.616;35.326;2023-12-20T05:22:23;68.00;;;28.60;;
36963;SDS011;22878;48.616;35.326;2023-12-20T05:24:48;60.20;;;27.10;;
36963;SDS011;22878;48.616;35.326;2023-12-20T05:27:14;67.60;;;28.10;;
36963;SDS011;22878;48.616;35.326;2023-12-20T05:29:39;66.10;;;28.10;;
36963;SDS011;22878;48.616;35.326;2023-12-20T05:32:05;69.10;;;28.30;;
36963;SDS011;22878;48.616;35.326;2023-12-20T05:34:31;70.20;;;29.00;;
36963;SDS011;22878;48.616;35.326;2023-12-20T05:36:57;63.20;;;27.70;;
36963;SDS011;22878;48.616;35.326;2023-12-20T05:39:23;64.10;;;28.30;;
36963;SDS011;22878;48.616;35.326;2023-12-20T05:41:49;70.80;;;27.60;;
36963;SDS011;22878;48.616;35.326;2023-12-20T05:44:14;61.80;;;27.40;;
36963;SDS011;22878;48.616;35.326;2023-12-20T05:46:40;65.40;;;28.30;;
36963;SDS011;22878;48.616;35.326;2023-12-20T05:49:06;66.80;;;29.10;;
36963;SDS011;22878;48.616;35.326;2023-12-20T05:51:31;58.90;;;26.80;;
36963;SDS011;22878;48.616;35.326;2023-12-20T05:53:58;55.60;;;24.50;;
36963;SDS011;22878;48.616;35.326;2023-12-20T05:56:23;59.30;;;26.90;;
36963;SDS011;22878;48.616;35.326;2023-12-20T05:58:49;58.90;;;27.30;;
36963;SDS011;22878;48.616;35.326;2023-12-20T06:01:15;61.80;;;27.40;;
36963;SDS011;22878;48.616;35.326;2023-12-20T06:03:42;57.50;;;25.50;;
36963;SDS011;22878;48.616;35.326;2023-12-20T06:06:08;61.30;;;26.20;;
36963;SDS011;22878;48.616;35.326;2023-12-20T06:08:34;64.10;;;27.60;;
36963;SDS011;22878;48.616;35.326;2023-12-20T06:11:00;59.80;;;26.90;;
36963;SDS011;22878;48.616;35.326;2023-12-20T06:13:25;64.40;;;27.90;;
36963;SDS011;22878;48.616;35.326;2023-12-20T06:15:52;63.20;;;27.70;;
36963;SDS011;22878;48.616;35.326;2023-12-20T06:18:19;62.60;;;26.20;;
36963;SDS011;22878;48.616;35.326;2023-12-20T06:20:44;52.70;;;24.70;;
36963;SDS011;22878;48.616;35.326;2023-12-20T06:23:10;58.40;;;27.90;;
36963;SDS011;22878;48.616;35.326;2023-12-20T06:25:36;59.10;;;26.70;;
36963;SDS011;22878;48.616;35.326;2023-12-20T06:28:01;57.40;;;26.20;;
36963;SDS011;22878;48.616;35.326;2023-12-20T06:30:27;64.00;;;26.80;;
36963;SDS011;22878;48.616;35.326;2023-12-20T06:32:53;52.70;;;24.00;;
36963;SDS011;22878;48.616;35.326;2023-12-20T06:35:19;59.70;;;24.90;;
36963;SDS011;22878;48.616;35.326;2023-12-20T06:37:45;54.60;;;25.80;;
36963;SDS011;22878;48.616;35.326;2023-12-20T06:40:10;51.40;;;24.60;;
36963;SDS011;22878;48.616;35.326;2023-12-20T06:42:37;54.60;;;24.60;;
36963;SDS011;22878;48.616;35.326;2023-12-20T06:45:03;52.20;;;23.00;;
36963;SDS011;22878;48.616;35.326;2023-12-20T06:47:28;49.40;;;22.50;;
36963;SDS011;22878;48.616;35.326;2023-12-20T06:49:57;47.00;;;22.30;;
36963;SDS011;22878;48.616;35.326;2023-12-20T06:52:23;51.30;;;21.60;;
36963;SDS011;22878;48.616;35.326;2023-12-20T06:54:51;51.20;;;21.40;;
36963;SDS011;22878;48.616;35.326;2023-12-20T06:57:20;48.80;;;21.70;;
36963;SDS011;22878;48.616;35.326;2023-12-20T06:59:45;44.60;;;20.50;;
36963;SDS011;22878;48.616;35.326;2023-12-20T07:02:11;42.50;;;18.80;;
36963;SDS011;22878;48.616;35.326;2023-12-20T07:04:40;41.40;;;19.10;;
36963;SDS011;22878;48.616;35.326;2023-12-20T07:07:06;44.80;;;19.40;;
36963;SDS011;22878;48.616;35.326;2023-12-20T07:09:32;42.90;;;19.20;;
36963;SDS011;22878;48.616;35.326;2023-12-20T07:11:58;44.80;;;19.80;;
36963;SDS011;22878;48.616;35.326;2023-12-20T07:14:24;41.80;;;19.00;;
36963;SDS011;22878;48.616;35.326;2023-12-20T07:16:49;41.30;;;18.80;;
36963;SDS011;22878;48.616;35.326;2023-12-20T07:19:15;40.10;;;19.40;;
36963;SDS011;22878;48.616;35.326;2023-12-20T07:21:41;38.70;;;18.30;;
36963;SDS011;22878;48.616;35.326;2023-12-20T07:24:09;37.50;;;17.90;;
36963;SDS011;22878;48.616;35.326;2023-12-20T07:26:35;45.70;;;18.50;;
36963;SDS011;22878;48.616;35.326;2023-12-20T07:29:02;45.50;;;20.20;;
36963;SDS011;22878;48.616;35.326;2023-12-20T07:31:29;40.10;;;17.20;;
36963;SDS011;22878;48.616;35.326;2023-12-20T07:33:55;39.90;;;17.90;;
36963;SDS011;22878;48.616;35.326;2023-12-20T07:36:20;42.60;;;17.00;;
36963;SDS011;22878;48.616;35.326;2023-12-20T07:38:46;33.90;;;16.70;;
36963;SDS011;22878;48.616;35.326;2023-12-20T07:41:12;33.20;;;16.60;;
36963;SDS011;22878;48.616;35.326;2023-12-20T07:43:37;36.50;;;16.10;;
36963;SDS011;22878;48.616;35.326;2023-12-20T07:46:04;36.00;;;16.50;;
36963;SDS011;22878;48.616;35.326;2023-12-20T07:48:30;36.00;;;17.00;;
36963;SDS011;22878;48.616;35.326;2023-12-20T07:50:56;35.10;;;16.70;;
36963;SDS011;22878;48.616;35.326;2023-12-20T07:53:21;30.50;;;14.30;;
36963;SDS011;22878;48.616;35.326;2023-12-20T07:55:46;36.10;;;16.10;;
36963;SDS011;22878;48.616;35.326;2023-12-20T07:58:12;30.20;;;14.70;;
36963;SDS011;22878;48.616;35.326;2023-12-20T08:00:38;32.70;;;14.70;;
36963;SDS011;22878;48.616;35.326;2023-12-20T08:03:04;32.90;;;15.10;;
36963;SDS011;22878;48.616;35.326;2023-12-20T08:05:29;37.40;;;16.20;;
36963;SDS011;22878;48.616;35.326;2023-12-20T08:07:55;35.90;;;16.20;;
36963;SDS011;22878;48.616;35.326;2023-12-20T08:10:43;33.30;;;15.10;;
36963;SDS011;22878;48.616;35.326;2023-12-20T08:13:09;30.00;;;15.50;;
36963;SDS011;22878;48.616;35.326;2023-12-20T08:15:35;35.10;;;16.80;;
36963;SDS011;22878;48.616;35.326;2023-12-20T08:18:02;33.30;;;15.20;;
36963;SDS011;22878;48.616;35.326;2023-12-20T08:20:31;34.50;;;16.00;;
36963;SDS011;22878;48.616;35.326;2023-12-20T08:22:56;37.90;;;17.40;;
36963;SDS011;22878;48.616;35.326;2023-12-20T08:25:22;35.90;;;16.80;;
36963;SDS011;22878;48.616;35.326;2023-12-20T08:27:53;33.80;;;16.90;;
36963;SDS011;22878;48.616;35.326;2023-12-20T08:30:18;32.80;;;15.90;;
36963;SDS011;22878;48.616;35.326;2023-12-20T08:32:48;36.30;;;16.40;;
36963;SDS011;22878;48.616;35.326;2023-12-20T08:35:16;34.10;;;16.30;;
36963;SDS011;22878;48.616;35.326;2023-12-20T08:37:45;35.50;;;16.50;;
36963;SDS011;22878;48.616;35.326;2023-12-20T08:40:10;40.40;;;18.10;;
36963;SDS011;22878;48.616;35.326;2023-12-20T08:42:36;36.30;;;17.30;;
36963;SDS011;22878;48.616;35.326;2023-12-20T08:45:03;42.30;;;19.60;;
36963;SDS011;22878;48.616;35.326;2023-12-20T08:47:30;45.30;;;19.00;;
36963;SDS011;22878;48.616;35.326;2023-12-20T08:49:55;39.90;;;18.20;;
36963;SDS011;22878;48.616;35.326;2023-12-20T08:52:25;33.20;;;16.10;;
36963;SDS011;22878;48.616;35.326;2023-12-20T08:54:54;33.70;;;15.30;;
36963;SDS011;22878;48.616;35.326;2023-12-20T08:57:20;31.80;;;16.10;;
36963;SDS011;22878;48.616;35.326;2023-12-20T08:59:49;37.80;;;15.60;;
36963;SDS011;22878;48.616;35.326;2023-12-20T09:02:18;32.60;;;15.20;;
36963;SDS011;22878;48.616;35.326;2023-12-20T09:04:44;33.40;;;15.40;;
36963;SDS011;22878;48.616;35.326;2023-12-20T09:07:22;32.60;;;14.60;;
36963;SDS011;22878;48.616;35.326;2023-12-20T09:09:55;27.90;;;13.40;;
36963;SDS011;22878;48.616;35.326;2023-12-20T09:12:21;28.10;;;12.90;;
36963;SDS011;22878;48.616;35.326;2023-12-20T09:14:48;30.30;;;14.30;;
36963;SDS011;22878;48.616;35.326;2023-12-20T09:17:15;28.70;;;13.30;;
36963;SDS011;22878;48.616;35.326;2023-12-20T09:19:41;24.60;;;13.20;;
36963;SDS011;22878;48.616;35.326;2023-12-20T09:22:08;31.60;;;14.40;;
36963;SDS011;22878;48.616;35.326;2023-12-20T09:24:35;32.60;;;15.30;;
36963;SDS011;22878;48.616;35.326;2023-12-20T09:27:00;31.90;;;14.90;;
36963;SDS011;22878;48.616;35.326;2023-12-20T09:29:26;29.50;;;14.50;;
36963;SDS011;22878;48.616;35.326;2023-12-20T09:31:52;31.20;;;14.30;;
36963;SDS011;22878;48.616;35.326;2023-12-20T09:34:17;32.10;;;14.20;;
36963;SDS011;22878;48.616;35.326;2023-12-20T09:36:43;29.90;;;15.00;;
36963;SDS011;22878;48.616;35.326;2023-12-20T09:39:15;31.70;;;14.50;;
36963;SDS011;22878;48.616;35.326;2023-12-20T09:44:15;35.30;;;17.60;;
36963;SDS011;22878;48.616;35.326;2023-12-20T09:46:43;37.80;;;16.50;;
36963;SDS011;22878;48.616;35.326;2023-12-20T09:49:14;29.40;;;15.20;;
36963;SDS011;22878;48.616;35.326;2023-12-20T09:51:42;32.30;;;16.20;;
36963;SDS011;22878;48.616;35.326;2023-12-20T09:54:08;26.40;;;13.80;;
36963;SDS011;22878;48.616;35.326;2023-12-20T09:56:34;35.60;;;15.90;;
36963;SDS011;22878;48.616;35.326;2023-12-20T09:59:00;32.10;;;15.60;;
36963;SDS011;22878;48.616;35.326;2023-12-20T10:01:26;30.30;;;15.00;;
36963;SDS011;22878;48.616;35.326;2023-12-20T10:03:54;34.10;;;16.30;;
36963;SDS011;22878;48.616;35.326;2023-12-20T10:06:20;26.10;;;14.00;;
36963;SDS011;22878;48.616;35.326;2023-12-20T10:08:47;27.90;;;13.20;;
36963;SDS011;22878;48.616;35.326;2023-12-20T10:11:12;27.40;;;13.60;;
36963;SDS011;22878;48.616;35.326;2023-12-20T10:13:39;26.40;;;13.30;;
36963;SDS011;22878;48.616;35.326;2023-12-20T10:16:06;31.80;;;14.20;;
36963;SDS011;22878;48.616;35.326;2023-12-20T10:18:34;23.80;;;12.40;;
36963;SDS011;22878;48.616;35.326;2023-12-20T10:21:01;23.00;;;12.50;;
36963;SDS011;22878;48.616;35.326;2023-12-20T10:23:28;28.10;;;13.30;;
36963;SDS011;22878;48.616;35.326;2023-12-20T10:25:57;24.50;;;12.50;;
36963;SDS011;22878;48.616;35.326;2023-12-20T10:28:24;26.30;;;12.80;;
36963;SDS011;22878;48.616;35.326;2023-12-20T10:31:00;27.30;;;13.30;;
36963;SDS011;22878;48.616;35.326;2023-12-20T10:33:44;23.30;;;12.30;;
36963;SDS011;22878;48.616;35.326;2023-12-20T10:36:17;27.00;;;12.90;;
36963;SDS011;22878;48.616;35.326;2023-12-20T10:38:45;25.50;;;13.00;;
36963;SDS011;22878;48.616;35.326;2023-12-20T10:41:36;26.50;;;12.10;;
36963;SDS011;22878;48.616;35.326;2023-12-20T10:44:17;22.30;;;12.10;;
36963;SDS011;22878;48.616;35.326;2023-12-20T10:46:48;28.80;;;13.70;;
36963;SDS011;22878;48.616;35.326;2023-12-20T10:49:22;27.60;;;13.00;;
36963;SDS011;22878;48.616;35.326;2023-12-20T10:52:00;25.60;;;13.20;;
36963;SDS011;22878;48.616;35.326;2023-12-20T10:54:37;41.70;;;20.80;;
36963;SDS011;22878;48.616;35.326;2023-12-20T10:57:05;28.90;;;15.60;;
36963;SDS011;22878;48.616;35.326;2023-12-20T10:59:36;32.50;;;14.40;;
36963;SDS011;22878;48.616;35.326;2023-12-20T11:02:03;24.50;;;13.30;;
36963;SDS011;22878;48.616;35.326;2023-12-20T11:05:11;28.40;;;14.10;;
36963;SDS011;22878;48.616;35.326;2023-12-20T11:07:50;27.10;;;14.10;;
36963;SDS011;22878;48.616;35.326;2023-12-20T11:10:45;25.90;;;13.60;;
36963;SDS011;22878;48.616;35.326;2023-12-20T11:13:20;33.70;;;15.00;;
36963;SDS011;22878;48.616;35.326;2023-12-20T11:15:48;27.40;;;15.30;;
36963;SDS011;22878;48.616;35.326;2023-12-20T11:18:50;31.50;;;14.90;;
36963;SDS011;22878;48.616;35.326;2023-12-20T11:21:39;28.80;;;14.40;;
36963;SDS011;22878;48.616;35.326;2023-12-20T11:24:08;29.60;;;14.30;;
36963;SDS011;22878;48.616;35.326;2023-12-20T11:26:50;28.80;;;14.00;;
36963;SDS011;22878;48.616;35.326;2023-12-20T11:32:03;29.70;;;14.30;;
36963;SDS011;22878;48.616;35.326;2023-12-20T11:34:40;26.70;;;14.20;;
36963;SDS011;22878;48.616;35.326;2023-12-20T11:37:07;24.20;;;13.40;;
36963;SDS011;22878;48.616;35.326;2023-12-20T11:39:32;32.80;;;14.50;;
36963;SDS011;22878;48.616;35.326;2023-12-20T11:42:03;23.60;;;12.60;;
36963;SDS011;22878;48.616;35.326;2023-12-20T11:46:57;27.80;;;11.40;;
36963;SDS011;22878;48.616;35.326;2023-12-20T11:49:23;22.00;;;11.60;;
36963;SDS011;22878;48.616;35.326;2023-12-20T11:51:50;26.30;;;11.90;;
36963;SDS011;22878;48.616;35.326;2023-12-20T11:54:16;20.80;;;11.10;;
36963;SDS011;22878;48.616;35.326;2023-12-20T11:56:41;21.70;;;11.50;;
36963;SDS011;22878;48.616;35.326;2023-12-20T11:59:08;20.90;;;11.20;;
36963;SDS011;22878;48.616;35.326;2023-12-20T12:01:36;25.10;;;11.60;;
36963;SDS011;22878;48.616;35.326;2023-12-20T12:04:02;22.70;;;11.80;;
36963;SDS011;22878;48.616;35.326;2023-12-20T12:06:29;21.00;;;11.10;;
36963;SDS011;22878;48.616;35.326;2023-12-20T12:08:54;19.90;;;10.50;;
36963;SDS011;22878;48.616;35.326;2023-12-20T12:11:20;19.30;;;9.80;;
36963;SDS011;22878;48.616;35.326;2023-12-20T12:13:46;18.20;;;9.70;;
36963;SDS011;22878;48.616;35.326;2023-12-20T12:16:12;22.70;;;10.30;;
36963;SDS011;22878;48.616;35.326;2023-12-20T12:18:42;20.10;;;10.60;;
36963;SDS011;22878;48.616;35.326;2023-12-20T12:21:07;21.40;;;10.20;;
36963;SDS011;22878;48.616;35.326;2023-12-20T12:23:36;18.40;;;10.70;;
36963;SDS011;22878;48.616;35.326;2023-12-20T12:26:03;16.50;;;9.10;;
36963;SDS011;22878;48.616;35.326;2023-12-20T12:28:29;17.20;;;9.60;;
36963;SDS011;22878;48.616;35.326;2023-12-20T12:30:59;17.00;;;9.10;;
36963;SDS011;22878;48.616;35.326;2023-12-20T12:33:25;19.80;;;9.60;;
36963;SDS011;22878;48.616;35.326;2023-12-20T12:35:51;19.60;;;9.90;;
36963;SDS011;22878;48.616;35.326;2023-12-20T12:38:19;18.50;;;10.30;;
36963;SDS011;22878;48.616;35.326;2023-12-20T12:40:49;21.00;;;10.40;;
36963;SDS011;22878;48.616;35.326;2023-12-20T12:43:15;23.10;;;10.10;;
36963;SDS011;22878;48.616;35.326;2023-12-20T12:45:41;17.50;;;10.20;;
36963;SDS011;22878;48.616;35.326;2023-12-20T12:48:07;22.70;;;11.90;;
36963;SDS011;22878;48.616;35.326;2023-12-20T12:50:32;24.70;;;12.50;;
36963;SDS011;22878;48.616;35.326;2023-12-20T12:52:58;19.00;;;10.60;;
36963;SDS011;22878;48.616;35.326;2023-12-20T12:55:24;23.20;;;10.80;;
36963;SDS011;22878;48.616;35.326;2023-12-20T12:57:49;19.80;;;10.90;;
36963;SDS011;22878;48.616;35.326;2023-12-20T13:00:15;19.40;;;10.70;;
36963;SDS011;22878;48.616;35.326;2023-12-20T13:02:40;18.20;;;9.60;;
36963;SDS011;22878;48.616;35.326;2023-12-20T13:05:07;21.70;;;10.00;;
36963;SDS011;22878;48.616;35.326;2023-12-20T13:07:33;24.90;;;11.80;;
36963;SDS011;22878;48.616;35.326;2023-12-20T13:09:59;22.40;;;12.30;;
36963;SDS011;22878;48.616;35.326;2023-12-20T13:12:25;23.30;;;10.80;;
36963;SDS011;22878;48.616;35.326;2023-12-20T13:14:51;21.30;;;9.70;;
36963;SDS011;22878;48.616;35.326;2023-12-20T13:17:17;19.00;;;10.60;;
36963;SDS011;22878;48.616;35.326;2023-12-20T13:19:51;20.70;;;11.00;;
36963;SDS011;22878;48.616;35.326;2023-12-20T13:22:16;20.90;;;11.40;;
36963;SDS011;22878;48.616;35.326;2023-12-20T13:24:42;26.20;;;13.50;;
36963;SDS011;22878;48.616;35.326;2023-12-20T13:27:09;22.10;;;12.60;;
36963;SDS011;22878;48.616;35.326;2023-12-20T13:29:35;23.20;;;11.90;;
36963;SDS011;22878;48.616;35.326;2023-12-20T13:32:00;25.80;;;11.80;;
36963;SDS011;22878;48.616;35.326;2023-12-20T13:34:28;24.30;;;13.30;;
36963;SDS011;22878;48.616;35.326;2023-12-20T13:36:54;25.20;;;14.20;;
36963;SDS011;22878;48.616;35.326;2023-12-20T13:39:23;33.30;;;15.80;;
36963;SDS011;22878;48.616;35.326;2023-12-20T13:41:48;30.70;;;15.10;;
36963;SDS011;22878;48.616;35.326;2023-12-20T13:44:14;30.40;;;16.00;;
36963;SDS011;22878;48.616;35.326;2023-12-20T13:46:40;30.80;;;14.60;;
36963;SDS011;22878;48.616;35.326;2023-12-20T13:49:06;28.10;;;13.90;;
36963;SDS011;22878;48.616;35.326;2023-12-20T13:51:32;26.80;;;12.80;;
36963;SDS011;22878;48.616;35.326;2023-12-20T13:53:58;24.40;;;13.30;;
36963;SDS011;22878;48.616;35.326;2023-12-20T13:56:24;20.90;;;11.20;;
36963;SDS011;22878;48.616;35.326;2023-12-20T13:58:50;21.90;;;12.00;;
36963;SDS011;22878;48.616;35.326;2023-12-20T14:01:16;23.80;;;11.60;;
36963;SDS011;22878;48.616;35.326;2023-12-20T14:03:41;24.40;;;13.30;;
36963;SDS011;22878;48.616;35.326;2023-12-20T14:09:46;20.20;;;10.40;;
36963;SDS011;22878;48.616;35.326;2023-12-20T14:12:12;22.80;;;11.20;;
36963;SDS011;22878;48.616;35.326;2023-12-20T14:14:38;25.10;;;11.50;;
36963;SDS011;22878;48.616;35.326;2023-12-20T14:17:04;20.30;;;11.20;;
36963;SDS011;22878;48.616;35.326;2023-12-20T14:19:31;24.10;;;11.60;;